Quebec, Canada
Current Conditions -  °F | °C
As of 11:00 AM on Monday 24 Nov 2014 (Local Time) from CYQB Reporting Station
Light Rain Light Rain  
Wind Chill: 36°   Ceiling: 1600
Heat Index: 43°   Visibility: 3mi
Dew Point: 41°   Wind: 14mph
Humidity: 93%   Direction: 70°ENE
Pressure: 29.52"   Gusts: NA
Location:  46.81°N, 71.22°W
Report Text: CYQB 241600Z 07012KT 330V080 3SM -RA BR FEW004 BKN016 OVC050 06/05 A2952 RMK SF2SC5SC1 PRESFR SLP999
Loading
Personal Weather Stations






























Interactive Weather Map New forecast layout! Learn more

10-Day Weather Forecast

Advertisements
Track Severe Weather on mobile